Time;durP1;ratioP1;P1;durP2;ratioP2;P2;SDS_P1;SDS_P2;PMS_P1;PMS_P2;Temp;Humidity;BMP_temperature;BMP_pressure;BME280_temperature;BME280_humidity;BME280_pressure;Samples;Min_cycle;Max_cycle;Signal;HPM_P1;HPM_P2
2021/03/26 00:01:10;;;;;;;6.03;4.45;;;;;;;;;;5069949;28;20379;-70
2021/03/26 00:03:38;;;;;;;8.18;4.88;;;;;;;;;;5070465;28;20402;-70
2021/03/26 00:06:06;;;;;;;5.93;4.57;;;;;;;;;;5069530;28;20384;-70
2021/03/26 00:08:32;;;;;;;6.50;4.50;;;;;;;;;;5070561;28;20379;-69
2021/03/26 00:10:59;;;;;;;5.18;4.07;;;;;;;;;;5070016;28;20474;-72
2021/03/26 00:13:25;;;;;;;5.57;4.65;;;;;;;;;;5069898;28;20368;-70
2021/03/26 00:15:51;;;;;;;5.22;4.63;;;;;;;;;;5070379;28;20374;-70
2021/03/26 00:18:17;;;;;;;4.75;4.20;;;;;;;;;;5069558;28;20773;-69
2021/03/26 00:20:43;;;;;;;5.10;4.15;;;;;;;;;;5070405;28;20375;-69
2021/03/26 00:23:09;;;;;;;4.95;4.07;;;;;;;;;;5069537;28;20419;-70
2021/03/26 00:25:36;;;;;;;6.68;4.53;;;;;;;;;;5070377;28;20399;-69
2021/03/26 00:28:04;;;;;;;6.43;4.30;;;;;;;;;;5069453;28;20399;-72
2021/03/26 00:30:30;;;;;;;5.53;4.78;;;;;;;;;;5070167;28;20424;-69
2021/03/26 00:32:56;;;;;;;7.35;4.97;;;;;;;;;;5070317;28;20379;-70
2021/03/26 00:35:23;;;;;;;5.63;4.50;;;;;;;;;;5069038;28;20484;-70
2021/03/26 00:37:49;;;;;;;6.25;4.90;;;;;;;;;;5069934;28;20411;-70
2021/03/26 00:40:16;;;;;;;5.25;4.40;;;;;;;;;;5069147;28;20360;-70
2021/03/26 00:42:42;;;;;;;7.63;4.77;;;;;;;;;;5070193;28;20403;-69
2021/03/26 00:45:10;;;;;;;4.93;4.43;;;;;;;;;;5069190;28;20378;-70
2021/03/26 00:47:36;;;;;;;5.47;4.40;;;;;;;;;;5069763;28;20914;-69
2021/03/26 00:50:04;;;;;;;6.38;4.10;;;;;;;;;;5069453;28;20877;-72
2021/03/26 00:52:30;;;;;;;7.07;4.85;;;;;;;;;;5070013;28;20396;-69
2021/03/26 00:54:56;;;;;;;6.80;5.20;;;;;;;;;;5070036;28;20387;-69
2021/03/26 00:57:22;;;;;;;6.00;4.40;;;;;;;;;;5068866;28;20931;-69
2021/03/26 00:59:48;;;;;;;6.20;4.20;;;;;;;;;;5070088;28;20466;-69
2021/03/26 01:02:14;;;;;;;6.20;4.80;;;;;;;;;;5068977;28;20874;-69
2021/03/26 01:04:40;;;;;;;5.40;4.05;;;;;;;;;;5073524;28;20384;-69
2021/03/26 01:07:06;;;;;;;5.00;4.10;;;;;;;;;;5073102;28;20429;-70
2021/03/26 01:09:32;;;;;;;8.33;4.80;;;;;;;;;;5073865;28;20716;-69
2021/03/26 01:11:58;;;;;;;5.10;4.60;;;;;;;;;;5073505;28;20364;-69
2021/03/26 01:14:24;;;;;;;5.18;4.10;;;;;;;;;;5072840;28;20368;-70
2021/03/26 01:16:50;;;;;;;6.85;4.78;;;;;;;;;;5073489;28;20379;-69
2021/03/26 01:19:17;;;;;;;6.22;4.85;;;;;;;;;;5072704;28;20418;-70
2021/03/26 01:21:43;;;;;;;5.45;4.63;;;;;;;;;;5073636;28;20712;-69
2021/03/26 01:24:12;;;;;;;5.10;4.60;;;;;;;;;;5072662;28;20777;-70
2021/03/26 01:26:38;;;;;;;5.50;4.50;;;;;;;;;;5073345;28;20372;-70
2021/03/26 01:29:08;;;;;;;5.50;4.50;;;;;;;;;;5072693;28;20466;-73
2021/03/26 01:31:34;;;;;;;6.63;4.72;;;;;;;;;;5073225;28;20754;-70
2021/03/26 01:34:00;;;;;;;7.20;5.05;;;;;;;;;;5073348;28;20376;-70
2021/03/26 01:36:26;;;;;;;7.60;4.00;;;;;;;;;;5071040;28;20617;-70
2021/03/26 01:38:52;;;;;;;5.20;4.55;;;;;;;;;;5072765;28;20848;-70
2021/03/26 01:41:22;;;;;;;5.85;4.78;;;;;;;;;;5071988;28;20375;-70
2021/03/26 01:43:48;;;;;;;6.57;4.60;;;;;;;;;;5072868;28;20786;-70
2021/03/26 01:46:16;;;;;;;7.00;4.57;;;;;;;;;;5072243;28;20379;-70
2021/03/26 01:48:46;;;;;;;6.22;4.50;;;;;;;;;;5072962;28;20372;-70
2021/03/26 01:51:17;;;;;;;4.70;4.10;;;;;;;;;;5072172;28;20457;-70
2021/03/26 01:53:43;;;;;;;6.15;4.40;;;;;;;;;;5073076;28;20447;-70
2021/03/26 01:56:10;;;;;;;5.45;4.47;;;;;;;;;;5071998;28;20376;-71
2021/03/26 01:58:37;;;;;;;7.25;5.20;;;;;;;;;;5072681;28;20411;-70
2021/03/26 02:01:06;;;;;;;5.97;4.40;;;;;;;;;;5072953;28;20376;-70
2021/03/26 02:03:36;;;;;;;6.50;4.40;;;;;;;;;;5071942;28;20367;-70
2021/03/26 02:06:22;;;;;;;5.15;4.32;;;;;;;;;;5072655;28;20376;-70
2021/03/26 02:08:49;;;;;;;5.25;4.13;;;;;;;;;;5065023;28;20418;-70
2021/03/26 02:11:26;;;;;;;7.50;4.72;;;;;;;;;;5071735;28;20372;-70
2021/03/26 02:13:52;;;;;;;6.20;4.53;;;;;;;;;;5072188;28;20749;-70
2021/03/26 02:16:19;;;;;;;5.13;4.32;;;;;;;;;;5070652;28;20376;-70
2021/03/26 02:18:45;;;;;;;7.53;4.30;;;;;;;;;;5072452;28;20563;-70
2021/03/26 02:21:17;;;;;;;8.25;4.40;;;;;;;;;;5071553;28;20461;-70
2021/03/26 02:23:44;;;;;;;4.90;4.40;;;;;;;;;;5072196;28;20376;-70
2021/03/26 02:26:26;;;;;;;5.90;4.22;;;;;;;;;;5071482;28;20379;-72
2021/03/26 02:28:53;;;;;;;5.45;4.32;;;;;;;;;;5071924;28;20372;-70
2021/03/26 02:31:19;;;;;;;7.22;4.15;;;;;;;;;;5071325;28;20400;-70
2021/03/26 02:33:46;;;;;;;4.87;4.37;;;;;;;;;;5072223;28;20425;-70
2021/03/26 02:36:13;;;;;;;4.80;4.00;;;;;;;;;;5071300;28;20401;-70
2021/03/26 02:38:40;;;;;;;5.50;4.20;;;;;;;;;;5071445;28;20411;-70
2021/03/26 02:41:09;;;;;;;4.85;4.32;;;;;;;;;;5071939;28;20380;-70
2021/03/26 02:43:41;;;;;;;5.60;3.92;;;;;;;;;;5071753;28;20383;-70
2021/03/26 02:46:15;;;;;;;6.50;4.40;;;;;;;;;;5071720;28;20380;-73
2021/03/26 02:48:56;;;;;;;5.72;4.25;;;;;;;;;;5071816;28;20423;-70
2021/03/26 02:51:25;;;;;;;6.28;4.40;;;;;;;;;;5070959;28;20395;-70
2021/03/26 02:53:50;;;;;;;4.20;3.80;;;;;;;;;;5071681;28;20375;-70
2021/03/26 02:56:23;;;;;;;5.72;4.53;;;;;;;;;;5070868;28;20452;-70
2021/03/26 02:58:52;;;;;;;6.85;4.57;;;;;;;;;;5071430;28;20416;-70
2021/03/26 03:01:24;;;;;;;8.98;4.75;;;;;;;;;;5070751;28;20748;-70
2021/03/26 03:03:53;;;;;;;6.93;3.97;;;;;;;;;;5071409;28;20380;-70
2021/03/26 03:06:25;;;;;;;5.60;3.90;;;;;;;;;;5070709;28;20418;-70
2021/03/26 03:08:53;;;;;;;4.72;3.90;;;;;;;;;;5071406;28;20368;-70
2021/03/26 03:11:21;;;;;;;5.10;3.90;;;;;;;;;;5070626;28;20709;-70
2021/03/26 03:13:59;;;;;;;5.45;4.00;;;;;;;;;;5071075;28;20466;-70
2021/03/26 03:16:28;;;;;;;5.53;4.47;;;;;;;;;;5069209;28;20779;-70
2021/03/26 03:18:57;;;;;;;7.10;4.90;;;;;;;;;;5071354;28;20414;-70
2021/03/26 03:21:33;;;;;;;5.38;4.15;;;6.60;99.90;;;;;;5070488;28;20462;-70
2021/03/26 03:24:03;;;;;;;6.90;4.72;;;;;;;;;;5071007;28;20529;-69
2021/03/26 03:26:37;;;;;;;4.55;3.78;;;;;;;;;;5070039;28;20376;-69
2021/03/26 03:29:10;;;;;;;4.60;4.03;;;;;;;;;;5070994;28;20394;-70
2021/03/26 03:31:47;;;;;;;6.32;5.00;;;;;;;;;;5070338;28;20883;-70
2021/03/26 03:34:19;;;;;;;7.30;3.90;;;;;;;;;;5070278;28;20379;-73
2021/03/26 03:37:00;;;;;;;5.03;4.05;;;;;;;;;;5069858;28;20960;-69
2021/03/26 03:39:30;;;;;;;5.30;4.22;;;;;;;;;;5069902;28;20561;-70
2021/03/26 03:41:56;;;;;;;5.07;4.25;;;;;;;;;;5070901;28;20405;-70
2021/03/26 03:44:30;;;;;;;7.20;4.07;;;;;;;;;;5070005;28;20963;-70
2021/03/26 03:47:08;;;;;;;5.10;3.90;;;;;;;;;;5070888;28;20376;-69
2021/03/26 03:49:46;;;;;;;6.93;4.50;;;;;;;;;;5069951;28;20367;-70
2021/03/26 03:52:20;;;;;;;6.75;4.43;;;;;;;;;;5070367;28;20364;-73
2021/03/26 03:55:01;;;;;;;6.20;4.10;;;;;;;;;;5070447;28;20837;-70
2021/03/26 03:57:33;;;;;;;6.25;4.60;;;;;;;;;;5069851;28;20368;-70
2021/03/26 04:00:15;;;;;;;4.27;3.87;;;;;;;;;;5070385;28;20378;-69
2021/03/26 04:02:54;;;;;;;5.72;4.10;;;;;;;;;;5070578;28;20449;-69
2021/03/26 04:05:25;;;;;;;5.57;4.47;;;;;;;;;;5069428;28;20384;-70
2021/03/26 04:07:57;;;;;;;7.45;4.57;;;;;;;;;;5070872;28;20445;-70
2021/03/26 04:10:25;;;;;;;8.20;4.25;;;;;;;;;;5069788;28;20380;-70
2021/03/26 04:12:52;;;;;;;6.88;4.80;;;;;;;;;;5070428;28;20694;-70
2021/03/26 04:15:23;;;;;;;5.30;4.10;;;;;;;;;;5069599;28;20879;-70
2021/03/26 04:17:58;;;;;;;4.50;4.10;;;;;;;;;;5070257;28;20890;-70
2021/03/26 04:20:27;;;;;;;5.50;4.30;;;;;;;;;;5069659;28;20394;-69
2021/03/26 04:22:55;;;;;;;6.80;4.30;;;;;;;;;;5070520;28;20378;-69
2021/03/26 04:25:23;;;;;;;5.07;3.70;;;;;;;;;;5069695;28;20364;-70
2021/03/26 04:27:54;;;;;;;5.50;4.70;;;;;;;;;;5070446;28;20372;-70
2021/03/26 04:30:22;;;;;;;4.90;4.40;;;;;;;;;;5069338;28;20462;-69
2021/03/26 04:32:49;;;;;;;4.20;3.70;;;;;;;;;;5070198;28;20379;-71
2021/03/26 04:35:16;;;;;;;6.20;4.95;;;;;;;;;;5070112;28;20402;-73
2021/03/26 04:37:46;;;;;;;7.10;4.47;;;;;;;;;;5070076;28;20387;-70
2021/03/26 04:40:14;;;;;;;6.65;4.75;;;;;;;;;;5074313;28;20375;-70
2021/03/26 04:43:17;;;;;;;8.25;4.95;;;5.60;99.90;;;;;;5073911;28;20379;-70
2021/03/26 04:45:51;;;;;;;6.82;5.07;;;;;;;;;;5074377;28;20466;-69
2021/03/26 04:48:38;;;;;;;7.50;5.30;;;;;;;;;;5072413;28;20785;-73
2021/03/26 04:51:13;;;;;;;5.80;4.90;;;;;;;;;;5074257;28;20716;-69
2021/03/26 04:53:42;;;;;;;5.63;4.53;;;;;;;;;;5073257;28;20380;-70
2021/03/26 04:56:10;;;;;;;6.40;4.80;;;;;;;;;;5074037;28;20375;-69
2021/03/26 04:58:39;;;;;;;5.78;4.60;;;5.50;99.90;;;;;;5072767;28;21031;-69
2021/03/26 05:01:14;;;;;;;4.88;4.30;;;;;;;;;;5073922;28;20376;-70
2021/03/26 05:03:42;;;;;;;6.43;4.65;;;;;;;;;;5073029;28;20871;-69
2021/03/26 05:06:11;;;;;;;10.23;5.00;;;;;;;;;;5073810;28;20958;-69
2021/03/26 05:08:40;;;;;;;4.28;3.88;;;;;;;;;;5073156;28;20451;-70
2021/03/26 05:11:07;;;;;;;5.35;4.75;;;;;;;;;;5074181;28;20430;-69
2021/03/26 05:13:36;;;;;;;5.32;4.80;;;;;;;;;;5073113;28;20417;-69
2021/03/26 05:16:08;;;;;;;5.60;4.97;;;;;;;;;;5072420;28;20388;-69
2021/03/26 05:18:44;;;;;;;6.88;4.20;;;;;;;;;;5073192;28;20838;-70
2021/03/26 05:21:29;;;;;;;7.13;4.28;;;;;;;;;;5073719;28;20918;-69
2021/03/26 05:24:01;;;;;;;6.73;4.37;;;;;;;;;;5073959;28;20449;-70
2021/03/26 05:26:27;;;;;;;4.50;4.10;;;;;;;;;;5072819;28;20368;-70
2021/03/26 05:28:54;;;;;;;5.37;4.87;;;;;;;;;;5072158;28;20384;-70
2021/03/26 05:31:20;;;;;;;6.18;4.30;;;;;;;;;;5072858;28;20392;-73
2021/03/26 05:33:48;;;;;;;6.00;4.40;;;;;;;;;;5073168;28;20445;-70
2021/03/26 05:36:33;;;;;;;6.28;3.75;;;;;;;;;;5073603;28;20729;-69
2021/03/26 05:39:03;;;;;;;8.73;5.20;;;;;;;;;;5073426;28;20481;-70
2021/03/26 05:41:32;;;;;;;7.80;4.95;;;;;;;;;;5072471;28;20888;-70
2021/03/26 05:44:31;;;;;;;9.25;5.00;;;4.80;99.90;;;;;;5073244;28;20394;-70
2021/03/26 05:47:03;;;;;;;6.45;4.65;;;;;;;;;;5073372;28;20380;-70
2021/03/26 05:49:29;;;;;;;6.53;5.00;;;;;;;;;;5071121;28;20379;-70
2021/03/26 05:52:14;;;;;;;7.70;5.15;;;;;;;;;;5066784;28;20380;-72
2021/03/26 05:54:40;;;;;;;6.85;5.05;;;;;;;;;;5071575;28;20409;-72
2021/03/26 05:57:13;;;;;;;5.35;4.30;;;;;;;;;;5071705;28;20408;-70
2021/03/26 05:59:39;;;;;;;5.65;5.05;;;;;;;;;;5069825;28;20444;-70
2021/03/26 06:02:35;;;;;;;6.60;5.03;;;5.30;99.90;;;;;;5067390;28;20430;-70
2021/03/26 06:05:04;;;;;;;6.13;4.70;;;;;;;;;;5070301;28;20404;-72
2021/03/26 06:07:49;;;;;;;6.28;4.55;;;;;;;;;;5068226;28;20392;-70
2021/03/26 06:10:34;;;;;;;6.57;5.05;;;;;;;;;;5069974;28;20368;-71
2021/03/26 06:13:02;;;;;;;6.38;4.90;;;;;;;;;;5067726;28;20383;-70
2021/03/26 06:15:28;;;;;;;6.05;4.25;;;;;;;;;;5068988;28;20386;-70
2021/03/26 06:18:01;;;;;;;9.80;5.50;;;;;;;;;;5072156;28;20402;-70
2021/03/26 06:20:30;;;;;;;8.10;4.80;;;;;;;;;;5070053;28;20455;-70
2021/03/26 06:22:59;;;;;;;6.07;4.75;;;;;;;;;;5067538;28;21697;-71
2021/03/26 06:26:02;;;;;;;6.53;4.30;;;5.50;99.90;;;;;;5069972;28;20466;-72
2021/03/26 06:28:51;;;;;;;7.20;4.95;;;;;;;;;;5069472;28;20454;-71
2021/03/26 06:31:23;;;;;;;5.72;4.65;;;;;;;;;;5067134;28;20417;-72
2021/03/26 06:34:08;;;;;;;5.05;4.47;;;;;;;;;;5071611;28;20923;-73
2021/03/26 06:36:53;;;;;;;5.55;4.93;;;;;;;;;;5071904;28;20380;-71
2021/03/26 06:39:22;;;;;;;5.90;5.00;;;;;;;;;;5072327;28;20469;-70
2021/03/26 06:42:05;;;;;;;5.57;4.95;;;;;;;;;;5071770;28;20406;-70
2021/03/26 06:44:49;;;;;;;7.30;4.90;;;;;;;;;;5070220;28;20372;-71
2021/03/26 06:47:20;;;;;;;6.82;4.80;;;;;;;;;;5071022;28;20371;-70
2021/03/26 06:50:03;;;;;;;7.80;5.47;;;;;;;;;;5068544;28;20392;-70
2021/03/26 06:52:53;;;;;;;6.53;5.15;;;;;;;;;;5070318;28;20716;-70
2021/03/26 06:55:38;;;;;;;8.73;4.97;;;;;;;;;;5071287;28;20429;-71
2021/03/26 06:58:04;;;;;;;8.02;5.05;;;;;;;;;;5071136;28;20412;-70
2021/03/26 07:00:39;;;;;;;7.57;4.80;;;;;;;;;;5069866;28;20430;-70
2021/03/26 07:03:24;;;;;;;7.07;4.68;;;;;;;;;;5071154;28;20724;-70
2021/03/26 07:06:08;;;;;;;8.20;5.40;;;;;;;;;;5069809;28;20879;-70
2021/03/26 07:08:48;;;;;;;8.57;5.05;;;;;;;;;;5069761;28;20787;-70
2021/03/26 07:11:41;;;;;;;8.02;5.35;;;7.00;99.90;;;;;;5071213;28;20412;-70
2021/03/26 07:14:16;;;;;;;7.25;5.30;;;;;;;;;;5071066;28;20391;-69
2021/03/26 07:16:51;;;;;;;8.20;5.35;;;;;;;;;;5069782;28;20844;-70
2021/03/26 07:19:50;;;;;;;7.80;4.97;;;;;;;;;;5069151;28;20402;-71
2021/03/26 07:22:34;;;;;;;8.00;4.78;;;;;;;;;;5032744;28;20382;-70
2021/03/26 07:25:03;;;;;;;7.03;4.80;;;;;;;;;;5072461;28;20382;-70
2021/03/26 07:27:54;;;;;;;5.70;5.10;;;8.10;99.90;;;;;;5073239;28;20465;-70
2021/03/26 07:30:39;;;;;;;5.80;4.80;;;;;;;;;;5070511;28;20398;-69
2021/03/26 07:33:25;;;;;;;10.18;4.97;;;;;;;;;;5064175;28;20371;-71
2021/03/26 07:36:03;;;;;;;7.35;5.05;;;;;;;;;;5071001;28;20871;-71
2021/03/26 07:38:48;;;;;;;6.95;5.45;;;;;;;;;;5067298;28;20429;-70
2021/03/26 07:41:38;;;;;;;7.85;5.35;;;;;;;;;;5073268;28;20783;-71
2021/03/26 07:44:08;;;;;;;9.40;5.13;;;;;;;;;;5075423;28;20481;-71
2021/03/26 07:46:56;;;;;;;6.45;4.68;;;8.60;99.90;;;;;;5067866;28;20386;-70
2021/03/26 07:49:24;;;;;;;7.07;5.28;;;;;;;;;;5071494;28;20388;-70
2021/03/26 07:52:09;;;;;;;5.78;5.07;;;;;;;;;;5069663;28;20441;-70
2021/03/26 07:54:48;;;;;;;6.93;5.78;;;;;;;;;;5066803;28;21134;-70
2021/03/26 07:57:14;;;;;;;7.13;4.90;;;;;;;;;;5067294;28;20467;-72
2021/03/26 08:00:00;;;;;;;7.00;5.07;;;;;;;;;;5065996;28;20830;-71
2021/03/26 08:02:36;;;;;;;8.35;5.00;;;;;;;;;;5064939;28;20418;-74
2021/03/26 08:05:11;;;;;;;9.00;4.68;;;;;;;;;;5076131;28;20386;-70
2021/03/26 08:08:14;;;;;;;7.28;5.30;;;9.70;99.90;;;;;;5069259;28;20372;-70
2021/03/26 08:10:44;;;;;;;7.50;4.85;;;;;;;;;;5001151;28;20396;-71
2021/03/26 08:13:20;;;;;;;7.88;5.10;;;;;;;;;;5079731;28;20376;-72
2021/03/26 08:15:57;;;;;;;8.75;4.82;;;;;;;;;;5071301;28;20379;-70
2021/03/26 08:18:41;;;;;;;7.60;5.53;;;;;;;;;;5076802;28;20406;-71
2021/03/26 08:21:17;;;;;;;6.38;4.85;;;;;;;;;;5072487;28;20840;-70
2021/03/26 08:23:47;;;;;;;6.53;4.90;;;;;;;;;;5077772;28;20368;-72
2021/03/26 08:26:28;;;;;;;8.20;5.50;;;;;;;;;;5072154;28;20368;-74
2021/03/26 08:29:28;;;;;;;7.45;5.30;;;;;;;;;;5075322;28;20388;-71
2021/03/26 08:31:54;;;;;;;6.25;4.60;;;;;;;;;;5050895;28;20397;-70
2021/03/26 08:34:41;;;;;;;7.55;5.10;;;;;;;;;;5067230;28;20420;-72
2021/03/26 08:37:07;;;;;;;7.68;4.80;;;;;;;;;;5063134;28;20537;-72
2021/03/26 08:39:42;;;;;;;8.48;4.70;;;;;;;;;;5064167;28;20427;-72
2021/03/26 08:42:15;;;;;;;7.03;5.15;;;;;;;;;;5062297;28;20391;-71
2021/03/26 08:44:41;;;;;;;6.53;4.47;;;;;;;;;;5061752;28;20946;-72
2021/03/26 08:47:16;;;;;;;7.57;5.30;;;;;;;;;;5063916;28;20759;-73
2021/03/26 08:49:42;;;;;;;7.15;5.10;;;;;;;;;;5067463;28;20380;-71
2021/03/26 08:52:20;;;;;;;6.30;5.07;;;;;;;;;;5061608;28;20387;-71
2021/03/26 08:54:54;;;;;;;7.43;5.22;;;;;;;;;;5063116;28;20390;-71
2021/03/26 08:57:55;;;;;;;7.32;5.60;;;;;;;;;;5065031;28;20386;-69
2021/03/26 09:00:21;;;;;;;7.38;5.32;;;;;;;;;;5014369;28;20494;-71
2021/03/26 09:02:56;;;;;;;5.83;4.70;;;;;;;;;;5049653;28;21192;-70
2021/03/26 09:05:41;;;;;;;7.57;4.78;;;;;;;;;;5064598;28;20814;-71
2021/03/26 09:08:16;;;;;;;7.72;5.30;;;;;;;;;;5065767;28;20882;-72
2021/03/26 09:11:01;;;;;;;5.70;4.63;;;;;;;;;;5062884;28;20378;-71
2021/03/26 09:13:34;;;;;;;8.07;5.22;;;;;;;;;;5065524;28;20384;-72
2021/03/26 09:16:08;;;;;;;6.45;4.90;;;;;;;;;;5064073;28;20386;-70
2021/03/26 09:18:37;;;;;;;7.47;5.07;;;;;;;;;;5065190;28;21256;-69
2021/03/26 09:21:10;;;;;;;9.00;4.80;;;;;;;;;;5062679;28;21628;-70
2021/03/26 09:23:44;;;;;;;7.15;4.72;;;;;;;;;;5065374;28;20383;-71
2021/03/26 09:26:29;;;;;;;7.97;5.00;;;;;;;;;;5068021;28;20395;-69
2021/03/26 09:28:58;;;;;;;6.40;5.00;;;;;;;;;;5070642;28;20492;-69
2021/03/26 09:31:44;;;;;;;8.30;5.85;;;;;;;;;;5066046;28;20384;-73
2021/03/26 09:34:19;;;;;;;6.90;4.93;;;;;;;;;;5066623;28;20449;-72
2021/03/26 09:36:46;;;;;;;5.85;4.80;;;;;;;;;;5069360;28;20396;-72
2021/03/26 09:39:17;;;;;;;8.40;4.90;;;;;;;;;;5070508;28;20448;-70
2021/03/26 09:41:48;;;;;;;12.27;5.40;;;;;;;;;;5065659;28;20400;-73
2021/03/26 09:44:17;;;;;;;7.22;5.07;;;;;;;;;;5066573;28;20473;-72
2021/03/26 09:46:48;;;;;;;6.00;4.50;;;;;;;;;;5067287;28;20378;-70
2021/03/26 09:49:17;;;;;;;6.05;4.40;;;;;;;;;;5069589;28;20396;-70
2021/03/26 09:51:43;;;;;;;4.95;4.45;;;;;;;;;;5065161;28;20479;-73
2021/03/26 09:54:18;;;;;;;6.60;4.97;;;;;;;;;;5066759;28;20416;-70
2021/03/26 09:56:56;;;;;;;7.23;5.23;;;;;;;;;;5066164;28;20481;-70
2021/03/26 09:59:43;;;;;;;7.93;4.50;;;;;;;;;;5067410;28;20991;-70
2021/03/26 10:02:09;;;;;;;5.00;4.50;;;;;;;;;;5059417;28;20380;-73
2021/03/26 10:04:40;;;;;;;8.60;5.18;;;;;;;;;;5068404;28;20388;-73
2021/03/26 10:07:32;;;;;;;8.90;5.60;;;;;;;;;;5069554;28;20430;-70
2021/03/26 10:12:48;;;;;;;8.20;5.60;;;;;;;;;;5064241;28;20423;-70
2021/03/26 10:15:24;;;;;;;5.85;5.25;;;;;;;;;;5066792;28;20399;-72
2021/03/26 10:18:07;;;;;;;9.80;5.57;;;;;;;;;;5066899;28;20368;-72
2021/03/26 10:20:53;;;;;;;5.00;4.50;;;;;;;;;;5066508;28;20467;-73
2021/03/26 10:23:34;;;;;;;7.25;5.05;;;;;;;;;;5068844;28;20719;-72
2021/03/26 10:26:00;;;;;;;7.60;5.47;;;;;;;;;;5068697;28;20424;-70
2021/03/26 10:28:32;;;;;;;7.03;4.90;;;;;;;;;;5070497;28;21209;-71
2021/03/26 10:31:03;;;;;;;5.50;4.70;;;;;;;;;;5065077;28;20388;-73
2021/03/26 10:33:31;;;;;;;5.82;5.05;;;;;;;;;;5070020;28;20368;-73
2021/03/26 10:36:09;;;;;;;6.07;4.38;;;;;;;;;;5063867;28;21614;-70
2021/03/26 10:38:41;;;;;;;7.75;5.10;;;;;;;;;;5063088;28;20427;-72
2021/03/26 10:41:12;;;;;;;7.30;4.90;;;;;;;;;;5065468;28;20378;-71
2021/03/26 10:43:43;;;;;;;6.30;4.70;;;;;;;;;;5066072;28;20375;-72
2021/03/26 10:46:25;;;;;;;7.10;5.50;;;;;;;;;;5067606;28;21637;-69
2021/03/26 10:48:54;;;;;;;8.50;5.53;;;;;;;;;;5065713;28;20431;-73
2021/03/26 10:51:26;;;;;;;8.18;4.75;;;;;;;;;;5066367;28;20484;-72
2021/03/26 10:53:56;;;;;;;6.63;4.53;;;;;;;;;;5067705;28;20382;-73
2021/03/26 10:56:42;;;;;;;6.77;4.70;;;;;;;;;;5067179;28;20386;-70
2021/03/26 10:59:31;;;;;;;6.60;4.70;;;;;;;;;;5043009;28;20435;-73
2021/03/26 11:02:01;;;;;;;6.55;4.32;;;;;;;;;;5062263;28;20378;-70
2021/03/26 11:04:34;;;;;;;6.00;4.35;;;;;;;;;;5066058;28;20446;-71
2021/03/26 11:07:13;;;;;;;5.93;4.05;;;;;;;;;;5067871;28;20463;-69
2021/03/26 11:09:41;;;;;;;6.75;3.97;;;;;;;;;;5062715;28;20386;-69
2021/03/26 11:12:15;;;;;;;4.67;3.57;;;;;;;;;;5065683;28;20469;-70
2021/03/26 11:14:44;;;;;;;6.88;4.47;;;;;;;;;;5068445;28;20880;-70
2021/03/26 11:17:23;;;;;;;4.05;3.65;;;;;;;;;;5065122;28;20372;-69
2021/03/26 11:20:26;;;;;;;4.47;3.83;;;16.50;97.70;;;;;;5064362;28;20406;-69
2021/03/26 11:23:05;;;;;;;4.10;2.80;;;;;;;;;;5060968;28;20371;-72
2021/03/26 11:25:31;;;;;;;5.82;3.10;;;;;;;;;;5064479;28;20529;-71
2021/03/26 11:27:57;;;;;;;2.95;2.45;;;;;;;;;;5065930;28;20374;-70
2021/03/26 11:30:24;;;;;;;3.17;2.88;;;;;;;;;;5065886;28;20775;-70
2021/03/26 11:32:54;;;;;;;3.20;2.50;;;;;;;;;;5062887;28;20418;-71
2021/03/26 11:35:22;;;;;;;4.53;2.50;;;;;;;;;;5066972;28;20391;-73
2021/03/26 11:37:50;;;;;;;4.07;2.42;;;;;;;;;;5066365;28;20737;-71
2021/03/26 11:40:19;;;;;;;3.38;2.40;;;;;;;;;;5065241;28;20385;-70
2021/03/26 11:42:45;;;;;;;2.20;2.00;;;;;;;;;;5063404;28;20997;-73
2021/03/26 11:45:14;;;;;;;3.20;2.30;;;;;;;;;;5066149;28;20453;-73
2021/03/26 11:47:44;;;;;;;3.30;2.40;;;19.00;93.30;;;;;;5062839;28;20378;-74
2021/03/26 11:50:23;;;;;;;4.60;2.35;;;;;;;;;;5064841;28;20805;-71
2021/03/26 11:52:58;;;;;;;3.72;2.15;;;;;;;;;;5062983;28;20468;-73
2021/03/26 11:55:30;;;;;;;2.88;1.88;;;;;;;;;;5067417;28;20413;-72
2021/03/26 11:58:05;;;;;;;2.60;1.90;;;;;;;;;;5064429;28;20374;-69
2021/03/26 12:00:33;;;;;;;2.20;1.53;;;;;;;;;;5066514;28;20730;-74
2021/03/26 12:03:22;;;;;;;4.13;2.20;;;20.50;82.80;;;;;;5064206;28;20376;-70
2021/03/26 12:06:12;;;;;;;3.22;1.80;;;;;;;;;;5066415;28;20434;-71
2021/03/26 12:08:38;;;;;;;4.35;2.00;;;;;;;;;;5067171;28;20408;-70
2021/03/26 12:11:08;;;;;;;2.63;1.83;;;;;;;;;;5066466;28;21722;-69
2021/03/26 12:13:40;;;;;;;1.88;1.70;;;;;;;;;;5066563;28;20378;-74
2021/03/26 12:16:06;;;;;;;2.80;1.98;;;;;;;;;;5064448;28;20378;-72
2021/03/26 12:18:33;;;;;;;3.20;2.10;;;;;;;;;;5067041;28;20530;-73
2021/03/26 12:21:14;;;;;;;2.30;1.92;;;;;;;;;;5063416;28;20376;-70
2021/03/26 12:23:44;;;;;;;3.10;1.60;;;;;;;;;;5062001;28;20366;-69
2021/03/26 12:26:31;;;;;;;3.83;2.00;;;;;;;;;;5066219;28;20380;-69
2021/03/26 12:29:11;;;;;;;2.90;2.10;;;;;;;;;;5067385;28;20384;-72
2021/03/26 12:32:00;;;;;;;1.92;1.80;;;;;;;;;;5061492;28;20384;-73
2021/03/26 12:34:41;;;;;;;3.38;2.28;;;;;;;;;;5055686;28;20392;-70
2021/03/26 12:37:08;;;;;;;2.63;1.83;;;;;;;;;;5065545;28;20406;-70
2021/03/26 12:39:37;;;;;;;3.15;2.40;;;;;;;;;;5066280;28;20768;-73
2021/03/26 12:42:12;;;;;;;3.30;2.25;;;;;;;;;;5063952;28;20371;-72
2021/03/26 12:44:43;;;;;;;2.45;2.17;;;;;;;;;;5064769;28;20412;-70
2021/03/26 12:47:16;;;;;;;2.13;1.60;;;;;;;;;;5062925;28;20419;-69
2021/03/26 12:49:45;;;;;;;1.50;1.40;;;;;;;;;;5065413;28;20402;-72
2021/03/26 12:52:28;;;;;;;1.70;1.60;;;;;;;;;;5062034;28;20387;-74
2021/03/26 12:54:54;;;;;;;4.20;1.97;;;;;;;;;;5064480;28;20773;-69
2021/03/26 12:57:27;;;;;;;2.70;2.27;;;;;;;;;;5064109;28;20374;-69
2021/03/26 12:59:57;;;;;;;4.78;2.22;;;;;;;;;;5070139;28;20418;-72
2021/03/26 13:02:33;;;;;;;2.25;1.73;;;;;;;;;;5067783;28;21132;-69
2021/03/26 13:05:05;;;;;;;3.28;2.30;;;;;;;;;;5066988;28;20462;-70
2021/03/26 13:07:45;;;;;;;2.20;2.00;;;22.70;89.60;;;;;;5067503;28;20392;-70
2021/03/26 13:10:28;;;;;;;2.70;2.40;;;;;;;;;;5067100;28;20405;-71
2021/03/26 13:13:01;;;;;;;5.60;2.70;;;;;;;;;;5068833;28;20386;-70
2021/03/26 13:15:30;;;;;;;3.40;2.35;;;;;;;;;;5070482;28;20364;-70
2021/03/26 13:18:12;;;;;;;3.00;1.90;;;20.60;80.60;;;;;;5066715;28;20410;-68
2021/03/26 13:20:51;;;;;;;2.60;2.20;;;;;;;;;;5073244;28;20427;-71
2021/03/26 13:23:21;;;;;;;2.00;1.90;;;19.40;82.50;;;;;;5073697;28;20375;-68
2021/03/26 13:26:03;;;;;;;6.00;2.40;;;;;;;;;;5072836;28;20438;-69
2021/03/26 13:28:31;;;;;;;2.50;2.30;;;;;;;;;;5071648;28;20425;-69
2021/03/26 13:31:02;;;;;;;4.45;2.42;;;;;;;;;;5071507;28;20463;-69
2021/03/26 13:33:34;;;;;;;2.90;2.00;;;;;;;;;;5051925;28;20424;-67
2021/03/26 13:36:06;;;;;;;5.13;2.30;;;;;;;;;;5051498;28;20845;-69
2021/03/26 13:38:32;;;;;;;2.95;2.40;;;;;;;;;;5068980;28;20814;-69
2021/03/26 13:40:59;;;;;;;3.33;2.45;;;;;;;;;;5071541;28;20371;-69
2021/03/26 13:43:30;;;;;;;4.00;2.20;;;;;;;;;;5069000;28;20364;-72
2021/03/26 13:46:04;;;;;;;3.00;2.00;;;17.80;87.20;;;;;;5082459;28;20374;-69
2021/03/26 13:48:37;;;;;;;2.53;2.28;;;;;;;;;;5073502;28;20389;-69
2021/03/26 13:51:05;;;;;;;2.10;1.90;;;;;;;;;;5092667;28;20378;-70
2021/03/26 13:53:46;;;;;;;2.90;2.00;;;18.40;82.10;;;;;;5092331;28;20850;-71
2021/03/26 13:56:23;;;;;;;2.50;2.30;;;;;;;;;;5092593;28;20443;-69
2021/03/26 13:58:51;;;;;;;4.10;2.35;;;;;;;;;;5091641;28;20497;-70
2021/03/26 14:01:23;;;;;;;2.47;2.03;;;;;;;;;;5091412;28;20484;-69
2021/03/26 14:03:49;;;;;;;2.75;1.95;;;;;;;;;;5091825;28;20469;-69
2021/03/26 14:06:15;;;;;;;2.58;2.30;;;;;;;;;;5091039;28;20431;-68
2021/03/26 14:08:44;;;;;;;4.38;2.17;;;;;;;;;;5091961;28;20394;-69
2021/03/26 14:11:14;;;;;;;2.50;2.28;;;;;;;;;;5091632;28;20398;-69
2021/03/26 14:13:59;;;;;;;2.80;2.50;;;;;;;;;;5091936;28;20874;-69
2021/03/26 14:16:38;;;;;;;3.20;2.13;;;;;;;;;;5093140;28;20414;-68
2021/03/26 14:19:11;;;;;;;2.50;2.30;;;;;;;;;;5092445;28;20587;-69
2021/03/26 14:21:42;;;;;;;2.30;2.10;;;;;;;;;;5092444;28;20397;-69
2021/03/26 14:24:14;;;;;;;2.40;2.20;;;;;;;;;;5092316;28;20880;-68
2021/03/26 14:26:46;;;;;;;5.70;2.30;;;;;;;;;;5092511;28;20366;-73
2021/03/26 14:29:15;;;;;;;5.10;2.35;;;;;;;;;;5092746;28;20453;-67
2021/03/26 14:31:47;;;;;;;5.55;2.45;;;;;;;;;;5086257;28;20391;-73
2021/03/26 14:34:20;;;;;;;3.10;2.30;;;21.30;82.90;;;;;;5072457;28;20396;-69
2021/03/26 14:36:46;;;;;;;2.90;2.50;;;;;;;;;;5071109;28;20405;-69
2021/03/26 14:39:23;;;;;;;2.60;2.40;;;20.30;82.80;;;;;;5071964;28;20760;-68
2021/03/26 14:41:58;;;;;;;4.25;2.10;;;20.60;82.00;;;;;;5071547;28;20392;-68
2021/03/26 14:44:29;;;;;;;5.80;3.00;;;;;;;;;;5072244;28;20388;-68
2021/03/26 14:47:00;;;;;;;3.67;2.45;;;19.60;81.50;;;;;;5071276;28;20382;-69
2021/03/26 14:49:31;;;;;;;2.70;2.50;;;;;;;;;;5071989;28;20379;-68
2021/03/26 14:52:03;;;;;;;3.67;2.50;;;;;;;;;;5071417;28;20375;-69
2021/03/26 14:54:34;;;;;;;3.75;2.70;;;;;;;;;;5071938;28;20384;-69
2021/03/26 14:57:17;;;;;;;3.80;2.40;;;18.80;85.80;;;;;;5070100;28;20445;-68
2021/03/26 14:59:46;;;;;;;3.17;2.40;;;;;;;;;;5071693;28;20416;-73
2021/03/26 15:02:13;;;;;;;2.95;2.13;;;;;;;;;;5071787;28;20406;-69
2021/03/26 15:04:50;;;;;;;6.43;2.70;;;18.60;87.40;;;;;;5071943;28;20436;-69
2021/03/26 15:07:21;;;;;;;3.00;2.20;;;;;;;;;;5071890;28;20878;-68
2021/03/26 15:10:00;;;;;;;3.95;3.00;;;;;;;;;;5070986;28;20712;-69
2021/03/26 15:12:38;;;;;;;3.05;2.50;;;;;;;;;;5071667;28;20368;-68